sensor_id;sensor_type;location;lat;lon;timestamp;P1;durP1;ratioP1;P2;durP2;ratioP2
33830;SDS011;20137;48.834;8.732;2023-04-12T00:01:04;7.43;;;1.92;;
33830;SDS011;20137;48.834;8.732;2023-04-12T00:03:30;8.57;;;2.50;;
33830;SDS011;20137;48.834;8.732;2023-04-12T00:05:58;9.55;;;2.20;;
33830;SDS011;20137;48.834;8.732;2023-04-12T00:08:27;6.68;;;2.20;;
33830;SDS011;20137;48.834;8.732;2023-04-12T00:11:02;5.43;;;2.17;;
33830;SDS011;20137;48.834;8.732;2023-04-12T00:13:28;9.75;;;2.50;;
33830;SDS011;20137;48.834;8.732;2023-04-12T00:15:54;5.55;;;2.03;;
33830;SDS011;20137;48.834;8.732;2023-04-12T00:18:20;8.95;;;2.42;;
33830;SDS011;20137;48.834;8.732;2023-04-12T00:20:49;11.57;;;2.55;;
33830;SDS011;20137;48.834;8.732;2023-04-12T00:23:16;6.60;;;2.28;;
33830;SDS011;20137;48.834;8.732;2023-04-12T00:25:42;6.45;;;2.10;;
33830;SDS011;20137;48.834;8.732;2023-04-12T00:28:08;7.10;;;2.03;;
33830;SDS011;20137;48.834;8.732;2023-04-12T00:30:34;8.93;;;2.30;;
33830;SDS011;20137;48.834;8.732;2023-04-12T00:33:00;8.52;;;2.33;;
33830;SDS011;20137;48.834;8.732;2023-04-12T00:35:25;6.20;;;2.20;;
33830;SDS011;20137;48.834;8.732;2023-04-12T00:37:51;8.43;;;2.20;;
33830;SDS011;20137;48.834;8.732;2023-04-12T00:40:17;9.90;;;2.50;;
33830;SDS011;20137;48.834;8.732;2023-04-12T00:42:42;14.10;;;3.08;;
33830;SDS011;20137;48.834;8.732;2023-04-12T00:45:08;13.70;;;2.45;;
33830;SDS011;20137;48.834;8.732;2023-04-12T00:47:34;10.98;;;2.38;;
33830;SDS011;20137;48.834;8.732;2023-04-12T00:50:01;12.00;;;2.67;;
33830;SDS011;20137;48.834;8.732;2023-04-12T00:52:28;5.68;;;2.20;;
33830;SDS011;20137;48.834;8.732;2023-04-12T00:54:58;9.25;;;2.30;;
33830;SDS011;20137;48.834;8.732;2023-04-12T00:57:29;7.50;;;2.25;;
33830;SDS011;20137;48.834;8.732;2023-04-12T01:00:00;6.85;;;2.20;;
33830;SDS011;20137;48.834;8.732;2023-04-12T01:02:30;6.38;;;2.25;;
33830;SDS011;20137;48.834;8.732;2023-04-12T01:04:57;9.45;;;1.90;;
33830;SDS011;20137;48.834;8.732;2023-04-12T01:10:25;10.13;;;2.10;;
33830;SDS011;20137;48.834;8.732;2023-04-12T01:13:04;9.43;;;2.30;;
33830;SDS011;20137;48.834;8.732;2023-04-12T01:18:49;10.52;;;1.83;;
33830;SDS011;20137;48.834;8.732;2023-04-12T01:21:30;9.23;;;1.90;;
33830;SDS011;20137;48.834;8.732;2023-04-12T01:26:44;8.13;;;2.22;;
33830;SDS011;20137;48.834;8.732;2023-04-12T01:29:15;4.78;;;1.88;;
33830;SDS011;20137;48.834;8.732;2023-04-12T01:31:59;3.63;;;1.90;;
33830;SDS011;20137;48.834;8.732;2023-04-12T01:34:27;9.30;;;2.47;;
33830;SDS011;20137;48.834;8.732;2023-04-12T01:36:55;8.00;;;2.95;;
33830;SDS011;20137;48.834;8.732;2023-04-12T01:39:22;8.68;;;2.00;;
33830;SDS011;20137;48.834;8.732;2023-04-12T01:41:48;4.43;;;1.70;;
33830;SDS011;20137;48.834;8.732;2023-04-12T01:44:15;6.40;;;2.17;;
33830;SDS011;20137;48.834;8.732;2023-04-12T01:46:44;8.32;;;1.98;;
33830;SDS011;20137;48.834;8.732;2023-04-12T01:49:11;8.95;;;2.08;;
33830;SDS011;20137;48.834;8.732;2023-04-12T01:54:44;6.60;;;2.53;;
33830;SDS011;20137;48.834;8.732;2023-04-12T01:57:15;8.60;;;2.42;;
33830;SDS011;20137;48.834;8.732;2023-04-12T01:59:43;8.48;;;2.60;;
33830;SDS011;20137;48.834;8.732;2023-04-12T02:02:11;6.55;;;2.33;;
33830;SDS011;20137;48.834;8.732;2023-04-12T02:04:38;12.02;;;2.58;;
33830;SDS011;20137;48.834;8.732;2023-04-12T02:07:05;8.38;;;2.38;;
33830;SDS011;20137;48.834;8.732;2023-04-12T02:09:35;10.88;;;2.70;;
33830;SDS011;20137;48.834;8.732;2023-04-12T02:12:02;8.43;;;2.58;;
33830;SDS011;20137;48.834;8.732;2023-04-12T02:14:28;7.25;;;3.10;;
33830;SDS011;20137;48.834;8.732;2023-04-12T02:16:55;9.75;;;2.90;;
33830;SDS011;20137;48.834;8.732;2023-04-12T02:19:22;5.78;;;2.20;;
33830;SDS011;20137;48.834;8.732;2023-04-12T02:21:49;7.45;;;2.80;;
33830;SDS011;20137;48.834;8.732;2023-04-12T02:24:15;10.38;;;3.05;;
33830;SDS011;20137;48.834;8.732;2023-04-12T02:26:40;6.25;;;2.30;;
33830;SDS011;20137;48.834;8.732;2023-04-12T02:29:06;6.75;;;2.65;;
33830;SDS011;20137;48.834;8.732;2023-04-12T02:31:34;6.50;;;2.70;;
33830;SDS011;20137;48.834;8.732;2023-04-12T02:34:01;7.25;;;2.78;;
33830;SDS011;20137;48.834;8.732;2023-04-12T02:36:27;6.95;;;2.83;;
33830;SDS011;20137;48.834;8.732;2023-04-12T02:38:53;9.82;;;3.30;;
33830;SDS011;20137;48.834;8.732;2023-04-12T02:41:20;6.47;;;2.63;;
33830;SDS011;20137;48.834;8.732;2023-04-12T02:43:46;7.95;;;2.65;;
33830;SDS011;20137;48.834;8.732;2023-04-12T02:46:14;8.75;;;3.20;;
33830;SDS011;20137;48.834;8.732;2023-04-12T02:48:43;9.85;;;2.70;;
33830;SDS011;20137;48.834;8.732;2023-04-12T02:51:09;8.32;;;2.88;;
33830;SDS011;20137;48.834;8.732;2023-04-12T02:53:35;8.23;;;3.22;;
33830;SDS011;20137;48.834;8.732;2023-04-12T02:56:02;7.68;;;2.47;;
33830;SDS011;20137;48.834;8.732;2023-04-12T02:58:29;8.23;;;2.42;;
33830;SDS011;20137;48.834;8.732;2023-04-12T03:00:54;7.95;;;3.00;;
33830;SDS011;20137;48.834;8.732;2023-04-12T03:03:22;6.95;;;2.78;;
33830;SDS011;20137;48.834;8.732;2023-04-12T03:05:48;7.68;;;3.03;;
33830;SDS011;20137;48.834;8.732;2023-04-12T03:08:14;6.95;;;2.88;;
33830;SDS011;20137;48.834;8.732;2023-04-12T03:10:40;10.13;;;2.95;;
33830;SDS011;20137;48.834;8.732;2023-04-12T03:13:05;6.30;;;2.70;;
33830;SDS011;20137;48.834;8.732;2023-04-12T03:15:31;10.20;;;3.05;;
33830;SDS011;20137;48.834;8.732;2023-04-12T03:17:57;6.38;;;2.67;;
33830;SDS011;20137;48.834;8.732;2023-04-12T03:20:22;5.13;;;2.70;;
33830;SDS011;20137;48.834;8.732;2023-04-12T03:22:49;8.25;;;2.63;;
33830;SDS011;20137;48.834;8.732;2023-04-12T03:25:15;9.70;;;3.08;;
33830;SDS011;20137;48.834;8.732;2023-04-12T03:27:44;10.70;;;3.40;;
33830;SDS011;20137;48.834;8.732;2023-04-12T03:30:10;9.23;;;2.58;;
33830;SDS011;20137;48.834;8.732;2023-04-12T03:32:37;7.85;;;2.55;;
33830;SDS011;20137;48.834;8.732;2023-04-12T03:35:04;9.88;;;3.63;;
33830;SDS011;20137;48.834;8.732;2023-04-12T03:37:32;6.65;;;2.70;;
33830;SDS011;20137;48.834;8.732;2023-04-12T03:39:58;9.13;;;3.00;;
33830;SDS011;20137;48.834;8.732;2023-04-12T03:42:23;8.40;;;2.95;;
33830;SDS011;20137;48.834;8.732;2023-04-12T03:44:50;5.65;;;3.13;;
33830;SDS011;20137;48.834;8.732;2023-04-12T03:47:17;4.00;;;2.95;;
33830;SDS011;20137;48.834;8.732;2023-04-12T03:49:43;9.15;;;3.42;;
33830;SDS011;20137;48.834;8.732;2023-04-12T03:52:09;6.10;;;3.33;;
33830;SDS011;20137;48.834;8.732;2023-04-12T03:54:35;7.65;;;3.17;;
33830;SDS011;20137;48.834;8.732;2023-04-12T03:57:00;6.70;;;3.33;;
33830;SDS011;20137;48.834;8.732;2023-04-12T03:59:27;9.32;;;3.78;;
33830;SDS011;20137;48.834;8.732;2023-04-12T04:01:53;7.85;;;3.20;;
33830;SDS011;20137;48.834;8.732;2023-04-12T04:04:22;8.43;;;3.40;;
33830;SDS011;20137;48.834;8.732;2023-04-12T04:06:48;7.43;;;3.00;;
33830;SDS011;20137;48.834;8.732;2023-04-12T04:09:14;9.38;;;3.15;;
33830;SDS011;20137;48.834;8.732;2023-04-12T04:11:40;8.75;;;3.15;;
33830;SDS011;20137;48.834;8.732;2023-04-12T04:14:06;9.27;;;3.30;;
33830;SDS011;20137;48.834;8.732;2023-04-12T04:16:32;6.78;;;3.22;;
33830;SDS011;20137;48.834;8.732;2023-04-12T04:18:58;6.88;;;3.20;;
33830;SDS011;20137;48.834;8.732;2023-04-12T04:21:24;6.60;;;3.30;;
33830;SDS011;20137;48.834;8.732;2023-04-12T04:23:50;6.30;;;2.90;;
33830;SDS011;20137;48.834;8.732;2023-04-12T04:26:16;9.77;;;4.00;;
33830;SDS011;20137;48.834;8.732;2023-04-12T04:28:42;6.10;;;3.67;;
33830;SDS011;20137;48.834;8.732;2023-04-12T04:31:14;4.68;;;3.35;;
33830;SDS011;20137;48.834;8.732;2023-04-12T04:33:41;8.98;;;3.90;;
33830;SDS011;20137;48.834;8.732;2023-04-12T04:36:07;9.13;;;3.35;;
33830;SDS011;20137;48.834;8.732;2023-04-12T04:38:33;13.25;;;3.75;;
33830;SDS011;20137;48.834;8.732;2023-04-12T04:40:59;7.97;;;3.15;;
33830;SDS011;20137;48.834;8.732;2023-04-12T04:43:28;9.60;;;3.90;;
33830;SDS011;20137;48.834;8.732;2023-04-12T04:45:55;5.97;;;3.10;;
33830;SDS011;20137;48.834;8.732;2023-04-12T04:48:22;9.57;;;3.58;;
33830;SDS011;20137;48.834;8.732;2023-04-12T04:50:48;7.70;;;3.70;;
33830;SDS011;20137;48.834;8.732;2023-04-12T04:53:16;7.13;;;3.25;;
33830;SDS011;20137;48.834;8.732;2023-04-12T04:55:43;8.05;;;3.00;;
33830;SDS011;20137;48.834;8.732;2023-04-12T04:58:08;6.93;;;3.35;;
33830;SDS011;20137;48.834;8.732;2023-04-12T05:00:34;6.93;;;3.10;;
33830;SDS011;20137;48.834;8.732;2023-04-12T05:03:00;5.80;;;3.22;;
33830;SDS011;20137;48.834;8.732;2023-04-12T05:05:29;5.35;;;3.25;;
33830;SDS011;20137;48.834;8.732;2023-04-12T05:07:55;8.15;;;3.63;;
33830;SDS011;20137;48.834;8.732;2023-04-12T05:10:21;7.43;;;3.33;;
33830;SDS011;20137;48.834;8.732;2023-04-12T05:12:47;8.55;;;3.88;;
33830;SDS011;20137;48.834;8.732;2023-04-12T05:15:13;5.78;;;3.22;;
33830;SDS011;20137;48.834;8.732;2023-04-12T05:17:38;7.32;;;3.47;;
33830;SDS011;20137;48.834;8.732;2023-04-12T05:20:05;8.05;;;3.03;;
33830;SDS011;20137;48.834;8.732;2023-04-12T05:22:31;5.50;;;2.72;;
33830;SDS011;20137;48.834;8.732;2023-04-12T05:24:58;5.43;;;2.72;;
33830;SDS011;20137;48.834;8.732;2023-04-12T05:27:24;6.15;;;3.60;;
33830;SDS011;20137;48.834;8.732;2023-04-12T05:29:51;4.88;;;2.90;;
33830;SDS011;20137;48.834;8.732;2023-04-12T05:32:17;5.35;;;3.08;;
33830;SDS011;20137;48.834;8.732;2023-04-12T05:34:43;4.53;;;2.53;;
33830;SDS011;20137;48.834;8.732;2023-04-12T05:37:09;6.40;;;3.13;;
33830;SDS011;20137;48.834;8.732;2023-04-12T05:39:35;6.05;;;3.03;;
33830;SDS011;20137;48.834;8.732;2023-04-12T05:42:01;5.18;;;3.50;;
33830;SDS011;20137;48.834;8.732;2023-04-12T05:44:26;5.97;;;2.97;;
33830;SDS011;20137;48.834;8.732;2023-04-12T05:46:52;7.18;;;2.95;;
33830;SDS011;20137;48.834;8.732;2023-04-12T05:49:17;5.85;;;2.83;;
33830;SDS011;20137;48.834;8.732;2023-04-12T05:51:43;8.63;;;3.42;;
33830;SDS011;20137;48.834;8.732;2023-04-12T05:54:09;5.97;;;2.90;;
33830;SDS011;20137;48.834;8.732;2023-04-12T05:56:34;6.03;;;3.08;;
33830;SDS011;20137;48.834;8.732;2023-04-12T05:59:01;6.15;;;2.70;;
33830;SDS011;20137;48.834;8.732;2023-04-12T06:01:28;7.05;;;2.53;;
33830;SDS011;20137;48.834;8.732;2023-04-12T06:03:57;5.25;;;2.92;;
33830;SDS011;20137;48.834;8.732;2023-04-12T06:06:23;7.07;;;3.65;;
33830;SDS011;20137;48.834;8.732;2023-04-12T06:08:48;5.68;;;3.00;;
33830;SDS011;20137;48.834;8.732;2023-04-12T06:11:15;8.82;;;3.53;;
33830;SDS011;20137;48.834;8.732;2023-04-12T06:13:40;5.47;;;3.25;;
33830;SDS011;20137;48.834;8.732;2023-04-12T06:16:06;9.50;;;3.67;;
33830;SDS011;20137;48.834;8.732;2023-04-12T06:18:32;8.07;;;3.58;;
33830;SDS011;20137;48.834;8.732;2023-04-12T06:20:58;7.57;;;3.60;;
33830;SDS011;20137;48.834;8.732;2023-04-12T06:23:24;8.18;;;3.20;;
33830;SDS011;20137;48.834;8.732;2023-04-12T06:25:50;6.53;;;3.00;;
33830;SDS011;20137;48.834;8.732;2023-04-12T06:28:17;5.20;;;3.03;;
33830;SDS011;20137;48.834;8.732;2023-04-12T06:30:43;6.57;;;3.40;;
33830;SDS011;20137;48.834;8.732;2023-04-12T06:33:08;5.00;;;3.00;;
33830;SDS011;20137;48.834;8.732;2023-04-12T06:35:38;5.28;;;2.78;;
33830;SDS011;20137;48.834;8.732;2023-04-12T06:38:04;7.22;;;3.10;;
33830;SDS011;20137;48.834;8.732;2023-04-12T06:40:30;5.35;;;3.25;;
33830;SDS011;20137;48.834;8.732;2023-04-12T06:42:55;5.47;;;3.05;;
33830;SDS011;20137;48.834;8.732;2023-04-12T06:45:21;5.22;;;2.95;;
33830;SDS011;20137;48.834;8.732;2023-04-12T06:47:47;5.03;;;2.40;;
33830;SDS011;20137;48.834;8.732;2023-04-12T06:50:12;6.07;;;3.17;;
33830;SDS011;20137;48.834;8.732;2023-04-12T06:52:38;4.63;;;2.72;;
33830;SDS011;20137;48.834;8.732;2023-04-12T06:55:04;5.65;;;3.40;;
33830;SDS011;20137;48.834;8.732;2023-04-12T06:57:31;6.20;;;2.90;;
33830;SDS011;20137;48.834;8.732;2023-04-12T06:59:56;6.13;;;3.20;;
33830;SDS011;20137;48.834;8.732;2023-04-12T07:02:22;5.97;;;3.22;;
33830;SDS011;20137;48.834;8.732;2023-04-12T07:04:51;5.78;;;2.80;;
33830;SDS011;20137;48.834;8.732;2023-04-12T07:07:18;6.10;;;3.47;;
33830;SDS011;20137;48.834;8.732;2023-04-12T07:09:44;5.78;;;2.95;;
33830;SDS011;20137;48.834;8.732;2023-04-12T07:12:11;6.15;;;3.05;;
33830;SDS011;20137;48.834;8.732;2023-04-12T07:14:37;5.15;;;2.40;;
33830;SDS011;20137;48.834;8.732;2023-04-12T07:17:03;7.40;;;2.80;;
33830;SDS011;20137;48.834;8.732;2023-04-12T07:19:30;2.97;;;1.90;;
33830;SDS011;20137;48.834;8.732;2023-04-12T07:21:56;4.57;;;2.30;;
33830;SDS011;20137;48.834;8.732;2023-04-12T07:24:22;3.35;;;1.80;;
33830;SDS011;20137;48.834;8.732;2023-04-12T07:26:47;3.85;;;2.50;;
33830;SDS011;20137;48.834;8.732;2023-04-12T07:29:13;6.85;;;2.17;;
33830;SDS011;20137;48.834;8.732;2023-04-12T07:31:41;5.03;;;2.47;;
33830;SDS011;20137;48.834;8.732;2023-04-12T07:34:06;4.00;;;2.13;;
33830;SDS011;20137;48.834;8.732;2023-04-12T07:36:32;6.22;;;2.53;;
33830;SDS011;20137;48.834;8.732;2023-04-12T07:38:58;5.65;;;2.10;;
33830;SDS011;20137;48.834;8.732;2023-04-12T07:41:23;6.85;;;2.92;;
33830;SDS011;20137;48.834;8.732;2023-04-12T07:43:49;4.10;;;2.60;;
33830;SDS011;20137;48.834;8.732;2023-04-12T07:46:15;6.07;;;2.97;;
33830;SDS011;20137;48.834;8.732;2023-04-12T07:48:41;6.07;;;2.80;;
33830;SDS011;20137;48.834;8.732;2023-04-12T07:51:07;4.32;;;1.98;;
33830;SDS011;20137;48.834;8.732;2023-04-12T07:53:33;4.93;;;1.95;;
33830;SDS011;20137;48.834;8.732;2023-04-12T07:55:59;4.03;;;1.90;;
33830;SDS011;20137;48.834;8.732;2023-04-12T07:58:25;6.10;;;1.90;;
33830;SDS011;20137;48.834;8.732;2023-04-12T08:00:52;7.63;;;2.08;;
33830;SDS011;20137;48.834;8.732;2023-04-12T08:03:18;4.43;;;1.75;;
33830;SDS011;20137;48.834;8.732;2023-04-12T08:05:44;3.83;;;1.98;;
33830;SDS011;20137;48.834;8.732;2023-04-12T08:08:13;6.45;;;2.00;;
33830;SDS011;20137;48.834;8.732;2023-04-12T08:10:39;8.55;;;1.92;;
33830;SDS011;20137;48.834;8.732;2023-04-12T08:13:05;6.20;;;2.20;;
33830;SDS011;20137;48.834;8.732;2023-04-12T08:15:31;4.32;;;1.67;;
33830;SDS011;20137;48.834;8.732;2023-04-12T08:17:57;7.55;;;2.35;;
33830;SDS011;20137;48.834;8.732;2023-04-12T08:20:23;4.28;;;2.15;;
33830;SDS011;20137;48.834;8.732;2023-04-12T08:22:48;12.70;;;3.28;;
33830;SDS011;20137;48.834;8.732;2023-04-12T08:25:16;12.23;;;3.80;;
33830;SDS011;20137;48.834;8.732;2023-04-12T08:27:42;7.72;;;2.55;;
33830;SDS011;20137;48.834;8.732;2023-04-12T08:30:08;5.25;;;2.30;;
33830;SDS011;20137;48.834;8.732;2023-04-12T08:32:35;6.85;;;2.90;;
33830;SDS011;20137;48.834;8.732;2023-04-12T08:35:04;9.15;;;2.53;;
33830;SDS011;20137;48.834;8.732;2023-04-12T08:37:30;3.67;;;1.95;;
33830;SDS011;20137;48.834;8.732;2023-04-12T08:39:58;6.10;;;2.25;;
33830;SDS011;20137;48.834;8.732;2023-04-12T08:42:25;4.85;;;2.80;;
33830;SDS011;20137;48.834;8.732;2023-04-12T08:44:51;6.93;;;2.47;;
33830;SDS011;20137;48.834;8.732;2023-04-12T08:47:17;4.72;;;2.65;;
33830;SDS011;20137;48.834;8.732;2023-04-12T08:49:45;3.85;;;2.45;;
33830;SDS011;20137;48.834;8.732;2023-04-12T08:52:10;5.00;;;2.20;;
33830;SDS011;20137;48.834;8.732;2023-04-12T08:54:36;6.43;;;2.17;;
33830;SDS011;20137;48.834;8.732;2023-04-12T08:57:06;6.13;;;2.25;;
33830;SDS011;20137;48.834;8.732;2023-04-12T08:59:35;3.53;;;2.15;;
33830;SDS011;20137;48.834;8.732;2023-04-12T09:02:03;5.93;;;2.70;;
33830;SDS011;20137;48.834;8.732;2023-04-12T09:04:29;4.82;;;2.30;;
33830;SDS011;20137;48.834;8.732;2023-04-12T09:06:55;7.10;;;2.47;;
33830;SDS011;20137;48.834;8.732;2023-04-12T09:09:39;6.45;;;1.88;;
33830;SDS011;20137;48.834;8.732;2023-04-12T09:12:09;3.97;;;2.10;;
33830;SDS011;20137;48.834;8.732;2023-04-12T09:14:36;4.70;;;2.15;;
33830;SDS011;20137;48.834;8.732;2023-04-12T09:17:03;6.63;;;2.30;;
33830;SDS011;20137;48.834;8.732;2023-04-12T09:19:32;5.53;;;2.10;;
33830;SDS011;20137;48.834;8.732;2023-04-12T09:22:00;5.38;;;2.08;;
33830;SDS011;20137;48.834;8.732;2023-04-12T09:24:26;4.50;;;1.60;;
33830;SDS011;20137;48.834;8.732;2023-04-12T09:27:02;6.93;;;1.98;;
33830;SDS011;20137;48.834;8.732;2023-04-12T09:29:30;6.18;;;2.08;;
33830;SDS011;20137;48.834;8.732;2023-04-12T09:32:00;4.80;;;2.20;;
33830;SDS011;20137;48.834;8.732;2023-04-12T09:34:30;4.88;;;2.38;;
33830;SDS011;20137;48.834;8.732;2023-04-12T09:36:57;7.03;;;1.92;;
33830;SDS011;20137;48.834;8.732;2023-04-12T09:39:32;9.75;;;2.13;;
33830;SDS011;20137;48.834;8.732;2023-04-12T09:42:09;6.18;;;1.98;;
33830;SDS011;20137;48.834;8.732;2023-04-12T09:44:38;4.38;;;1.85;;
33830;SDS011;20137;48.834;8.732;2023-04-12T09:47:04;5.40;;;2.00;;
33830;SDS011;20137;48.834;8.732;2023-04-12T09:49:40;8.32;;;2.28;;
33830;SDS011;20137;48.834;8.732;2023-04-12T09:52:07;3.58;;;1.60;;
33830;SDS011;20137;48.834;8.732;2023-04-12T09:54:42;4.05;;;1.50;;
33830;SDS011;20137;48.834;8.732;2023-04-12T09:57:09;5.15;;;1.73;;
33830;SDS011;20137;48.834;8.732;2023-04-12T09:59:37;4.65;;;1.77;;
33830;SDS011;20137;48.834;8.732;2023-04-12T10:02:06;4.43;;;1.90;;
33830;SDS011;20137;48.834;8.732;2023-04-12T10:04:36;3.65;;;1.73;;
33830;SDS011;20137;48.834;8.732;2023-04-12T10:07:04;4.80;;;1.73;;
33830;SDS011;20137;48.834;8.732;2023-04-12T10:09:31;5.72;;;1.70;;
33830;SDS011;20137;48.834;8.732;2023-04-12T10:11:58;2.97;;;1.40;;
33830;SDS011;20137;48.834;8.732;2023-04-12T10:14:27;5.68;;;2.33;;
33830;SDS011;20137;48.834;8.732;2023-04-12T10:16:54;3.42;;;1.30;;
33830;SDS011;20137;48.834;8.732;2023-04-12T10:19:22;5.55;;;1.83;;
33830;SDS011;20137;48.834;8.732;2023-04-12T10:21:50;3.63;;;1.23;;
33830;SDS011;20137;48.834;8.732;2023-04-12T10:24:16;3.00;;;1.40;;
33830;SDS011;20137;48.834;8.732;2023-04-12T10:26:42;2.95;;;1.30;;
33830;SDS011;20137;48.834;8.732;2023-04-12T10:31:47;4.10;;;1.00;;
33830;SDS011;20137;48.834;8.732;2023-04-12T10:34:14;2.58;;;1.08;;
33830;SDS011;20137;48.834;8.732;2023-04-12T10:36:59;2.55;;;0.98;;
33830;SDS011;20137;48.834;8.732;2023-04-12T10:39:35;2.08;;;1.00;;
33830;SDS011;20137;48.834;8.732;2023-04-12T10:42:22;2.22;;;1.00;;
33830;SDS011;20137;48.834;8.732;2023-04-12T10:44:51;2.97;;;0.88;;
33830;SDS011;20137;48.834;8.732;2023-04-12T10:50:19;4.47;;;1.30;;
33830;SDS011;20137;48.834;8.732;2023-04-12T10:55:39;2.95;;;1.10;;
33830;SDS011;20137;48.834;8.732;2023-04-12T10:58:06;2.67;;;1.15;;
33830;SDS011;20137;48.834;8.732;2023-04-12T11:03:22;1.80;;;0.80;;
33830;SDS011;20137;48.834;8.732;2023-04-12T11:06:01;1.58;;;0.80;;
33830;SDS011;20137;48.834;8.732;2023-04-12T11:08:29;3.70;;;1.73;;
33830;SDS011;20137;48.834;8.732;2023-04-12T11:11:02;3.15;;;1.10;;
33830;SDS011;20137;48.834;8.732;2023-04-12T11:13:38;2.10;;;1.40;;
33830;SDS011;20137;48.834;8.732;2023-04-12T11:16:04;2.60;;;1.35;;
33830;SDS011;20137;48.834;8.732;2023-04-12T11:18:33;2.10;;;1.00;;
33830;SDS011;20137;48.834;8.732;2023-04-12T11:21:00;3.65;;;1.10;;
33830;SDS011;20137;48.834;8.732;2023-04-12T11:23:28;2.13;;;1.38;;
33830;SDS011;20137;48.834;8.732;2023-04-12T11:25:55;2.65;;;1.13;;
33830;SDS011;20137;48.834;8.732;2023-04-12T11:28:22;4.30;;;1.20;;
33830;SDS011;20137;48.834;8.732;2023-04-12T11:30:51;2.70;;;1.40;;
33830;SDS011;20137;48.834;8.732;2023-04-12T11:33:38;3.50;;;0.90;;
33830;SDS011;20137;48.834;8.732;2023-04-12T11:36:09;2.67;;;1.15;;
33830;SDS011;20137;48.834;8.732;2023-04-12T11:38:38;1.00;;;0.63;;
33830;SDS011;20137;48.834;8.732;2023-04-12T11:41:04;2.72;;;1.00;;
33830;SDS011;20137;48.834;8.732;2023-04-12T11:43:32;2.65;;;0.80;;
33830;SDS011;20137;48.834;8.732;2023-04-12T11:45:59;3.17;;;0.93;;
33830;SDS011;20137;48.834;8.732;2023-04-12T11:48:26;1.50;;;0.95;;
33830;SDS011;20137;48.834;8.732;2023-04-12T11:50:52;1.55;;;0.73;;
33830;SDS011;20137;48.834;8.732;2023-04-12T11:53:18;0.85;;;0.80;;
33830;SDS011;20137;48.834;8.732;2023-04-12T11:55:48;1.63;;;0.85;;
33830;SDS011;20137;48.834;8.732;2023-04-12T11:58:15;1.88;;;0.70;;
33830;SDS011;20137;48.834;8.732;2023-04-12T12:00:42;3.65;;;0.75;;
33830;SDS011;20137;48.834;8.732;2023-04-12T12:03:09;0.98;;;0.88;;
33830;SDS011;20137;48.834;8.732;2023-04-12T12:05:36;1.75;;;0.60;;
33830;SDS011;20137;48.834;8.732;2023-04-12T12:08:03;2.15;;;0.85;;
33830;SDS011;20137;48.834;8.732;2023-04-12T12:10:32;2.10;;;0.90;;
33830;SDS011;20137;48.834;8.732;2023-04-12T12:12:59;2.38;;;1.20;;
33830;SDS011;20137;48.834;8.732;2023-04-12T12:15:28;3.20;;;0.75;;
33830;SDS011;20137;48.834;8.732;2023-04-12T12:17:55;1.40;;;0.75;;
33830;SDS011;20137;48.834;8.732;2023-04-12T12:20:21;1.55;;;0.60;;
33830;SDS011;20137;48.834;8.732;2023-04-12T12:22:49;1.55;;;0.75;;
33830;SDS011;20137;48.834;8.732;2023-04-12T12:25:18;1.23;;;0.75;;
33830;SDS011;20137;48.834;8.732;2023-04-12T12:27:44;1.85;;;0.90;;
33830;SDS011;20137;48.834;8.732;2023-04-12T12:30:15;1.65;;;0.60;;
33830;SDS011;20137;48.834;8.732;2023-04-12T12:32:41;2.20;;;0.90;;
33830;SDS011;20137;48.834;8.732;2023-04-12T12:35:08;1.52;;;0.55;;
33830;SDS011;20137;48.834;8.732;2023-04-12T12:37:35;0.50;;;0.50;;
33830;SDS011;20137;48.834;8.732;2023-04-12T12:40:08;2.83;;;0.77;;
33830;SDS011;20137;48.834;8.732;2023-04-12T12:45:41;1.20;;;0.65;;
33830;SDS011;20137;48.834;8.732;2023-04-12T12:48:07;0.80;;;0.60;;
33830;SDS011;20137;48.834;8.732;2023-04-12T12:50:33;1.92;;;0.80;;
33830;SDS011;20137;48.834;8.732;2023-04-12T12:53:00;3.63;;;0.80;;
33830;SDS011;20137;48.834;8.732;2023-04-12T12:55:28;1.13;;;0.65;;
33830;SDS011;20137;48.834;8.732;2023-04-12T12:57:54;2.63;;;0.60;;
33830;SDS011;20137;48.834;8.732;2023-04-12T13:00:22;1.02;;;0.60;;
33830;SDS011;20137;48.834;8.732;2023-04-12T13:02:50;2.55;;;1.05;;
33830;SDS011;20137;48.834;8.732;2023-04-12T13:05:16;1.02;;;0.60;;
33830;SDS011;20137;48.834;8.732;2023-04-12T13:07:41;0.60;;;0.50;;
33830;SDS011;20137;48.834;8.732;2023-04-12T13:10:08;1.15;;;0.60;;
33830;SDS011;20137;48.834;8.732;2023-04-12T13:12:34;3.15;;;0.77;;
33830;SDS011;20137;48.834;8.732;2023-04-12T13:15:00;2.85;;;0.80;;
33830;SDS011;20137;48.834;8.732;2023-04-12T13:17:26;1.48;;;0.90;;
33830;SDS011;20137;48.834;8.732;2023-04-12T13:19:53;1.67;;;0.70;;
33830;SDS011;20137;48.834;8.732;2023-04-12T13:22:19;1.20;;;0.52;;
33830;SDS011;20137;48.834;8.732;2023-04-12T13:24:45;2.55;;;0.77;;
33830;SDS011;20137;48.834;8.732;2023-04-12T13:27:11;2.30;;;0.60;;
33830;SDS011;20137;48.834;8.732;2023-04-12T13:29:38;1.10;;;0.50;;
33830;SDS011;20137;48.834;8.732;2023-04-12T13:32:03;2.47;;;0.63;;
33830;SDS011;20137;48.834;8.732;2023-04-12T13:34:30;1.10;;;0.65;;
33830;SDS011;20137;48.834;8.732;2023-04-12T13:36:56;1.08;;;0.52;;
33830;SDS011;20137;48.834;8.732;2023-04-12T13:39:21;1.55;;;0.50;;
33830;SDS011;20137;48.834;8.732;2023-04-12T13:41:47;1.08;;;0.63;;
33830;SDS011;20137;48.834;8.732;2023-04-12T13:44:13;1.35;;;0.75;;
33830;SDS011;20137;48.834;8.732;2023-04-12T13:46:38;1.80;;;0.73;;
33830;SDS011;20137;48.834;8.732;2023-04-12T13:49:04;2.25;;;0.88;;
33830;SDS011;20137;48.834;8.732;2023-04-12T13:51:29;1.15;;;0.63;;
33830;SDS011;20137;48.834;8.732;2023-04-12T13:53:56;1.80;;;0.70;;
33830;SDS011;20137;48.834;8.732;2023-04-12T13:56:22;2.47;;;0.75;;
33830;SDS011;20137;48.834;8.732;2023-04-12T13:58:48;0.98;;;0.60;;
33830;SDS011;20137;48.834;8.732;2023-04-12T14:01:14;1.88;;;0.88;;
33830;SDS011;20137;48.834;8.732;2023-04-12T14:03:40;1.60;;;0.82;;
33830;SDS011;20137;48.834;8.732;2023-04-12T14:06:05;3.45;;;1.02;;
33830;SDS011;20137;48.834;8.732;2023-04-12T14:08:32;1.33;;;0.70;;
33830;SDS011;20137;48.834;8.732;2023-04-12T14:10:58;2.08;;;1.00;;
33830;SDS011;20137;48.834;8.732;2023-04-12T14:13:24;1.42;;;0.68;;
33830;SDS011;20137;48.834;8.732;2023-04-12T14:15:51;0.50;;;0.43;;
33830;SDS011;20137;48.834;8.732;2023-04-12T14:18:18;0.85;;;0.60;;
33830;SDS011;20137;48.834;8.732;2023-04-12T14:20:44;0.60;;;0.47;;
33830;SDS011;20137;48.834;8.732;2023-04-12T14:23:13;1.13;;;0.52;;
33830;SDS011;20137;48.834;8.732;2023-04-12T14:25:38;1.95;;;0.75;;
33830;SDS011;20137;48.834;8.732;2023-04-12T14:28:05;3.78;;;0.73;;
33830;SDS011;20137;48.834;8.732;2023-04-12T14:30:30;1.58;;;0.82;;
33830;SDS011;20137;48.834;8.732;2023-04-12T14:32:56;1.10;;;0.60;;
33830;SDS011;20137;48.834;8.732;2023-04-12T14:35:22;2.65;;;0.82;;
33830;SDS011;20137;48.834;8.732;2023-04-12T14:37:47;3.38;;;0.75;;
33830;SDS011;20137;48.834;8.732;2023-04-12T14:40:13;2.58;;;0.85;;
33830;SDS011;20137;48.834;8.732;2023-04-12T14:42:39;2.42;;;0.88;;
33830;SDS011;20137;48.834;8.732;2023-04-12T14:45:05;3.00;;;0.80;;
33830;SDS011;20137;48.834;8.732;2023-04-12T14:47:33;1.02;;;0.50;;
33830;SDS011;20137;48.834;8.732;2023-04-12T14:49:59;0.52;;;0.40;;
33830;SDS011;20137;48.834;8.732;2023-04-12T14:52:25;1.67;;;0.50;;
33830;SDS011;20137;48.834;8.732;2023-04-12T14:54:51;1.42;;;0.50;;
33830;SDS011;20137;48.834;8.732;2023-04-12T14:57:17;1.50;;;0.50;;
33830;SDS011;20137;48.834;8.732;2023-04-12T14:59:43;4.70;;;2.03;;
33830;SDS011;20137;48.834;8.732;2023-04-12T15:02:08;6.57;;;3.13;;
33830;SDS011;20137;48.834;8.732;2023-04-12T15:04:34;3.95;;;2.03;;
33830;SDS011;20137;48.834;8.732;2023-04-12T15:07:00;7.18;;;4.53;;
33830;SDS011;20137;48.834;8.732;2023-04-12T15:09:25;4.13;;;1.70;;
33830;SDS011;20137;48.834;8.732;2023-04-12T15:11:52;1.65;;;1.00;;
33830;SDS011;20137;48.834;8.732;2023-04-12T15:14:25;10.75;;;6.15;;